createdAt,value
2022-09-09T00:01:38.882Z,75.47
2022-09-09T00:04:28.372Z,75.68
2022-09-09T00:07:26.097Z,75.66
2022-09-09T00:10:16.034Z,75.04
2022-09-09T00:13:20.969Z,74.99
2022-09-09T00:16:29.231Z,74.93
2022-09-09T00:19:15.089Z,74.72
2022-09-09T00:22:06.727Z,74.72
2022-09-09T00:24:44.854Z,74.80
2022-09-09T00:27:24.833Z,74.82
2022-09-09T00:30:02.687Z,75.03
2022-09-09T00:32:36.534Z,75.16
2022-09-09T00:35:19.654Z,75.04
2022-09-09T00:37:52.924Z,74.68
2022-09-09T00:40:36.226Z,74.60
2022-09-09T00:43:27.192Z,74.62
2022-09-09T00:45:59.290Z,74.68
2022-09-09T00:48:53.280Z,74.34
2022-09-09T00:51:52.995Z,74.65
2022-09-09T00:54:41.227Z,75.03
2022-09-09T00:57:25.624Z,75.00
2022-09-09T01:00:00.156Z,75.08
2022-09-09T01:02:36.452Z,75.47
2022-09-09T01:05:18.175Z,75.67
2022-09-09T01:07:49.792Z,75.70
2022-09-09T01:10:40.191Z,75.86
2022-09-09T01:13:22.947Z,76.27
2022-09-09T01:15:51.235Z,76.17
2022-09-09T01:18:23.242Z,76.32
2022-09-09T01:21:33.243Z,77.11
2022-09-09T01:24:32.282Z,76.66
2022-09-09T01:27:06.862Z,76.55
2022-09-09T01:29:34.313Z,76.46
2022-09-09T01:32:41.720Z,76.56
2022-09-09T01:35:55.421Z,76.05
2022-09-09T01:38:24.760Z,76.19
2022-09-09T01:40:53.901Z,75.95
2022-09-09T01:43:28.152Z,75.64
2022-09-09T01:45:59.471Z,75.62
2022-09-09T01:48:27.054Z,76.03
2022-09-09T01:50:53.567Z,75.93
2022-09-09T01:53:22.554Z,75.83
2022-09-09T01:56:05.713Z,75.88
2022-09-09T01:58:53.123Z,75.69
2022-09-09T02:01:50.213Z,75.84
2022-09-09T02:04:33.611Z,75.92
2022-09-09T02:07:01.343Z,76.11
2022-09-09T02:09:31.566Z,76.15
2022-09-09T02:12:14.457Z,76.08
2022-09-09T02:14:50.811Z,76.16
2022-09-09T02:17:29.420Z,75.98
2022-09-09T02:20:13.727Z,75.51
2022-09-09T02:22:46.402Z,75.38
2022-09-09T02:25:18.884Z,75.27
2022-09-09T02:27:51.367Z,75.38
2022-09-09T02:30:19.555Z,74.98
2022-09-09T02:32:49.603Z,74.96
2022-09-09T02:35:22.413Z,74.64
2022-09-09T02:37:52.727Z,74.73
2022-09-09T02:40:19.366Z,74.82
2022-09-09T02:42:50.169Z,74.90
2022-09-09T02:45:22.268Z,74.99
2022-09-09T02:48:10.490Z,75.42
2022-09-09T02:50:54.649Z,75.47
2022-09-09T02:53:44.333Z,75.81
2022-09-09T02:56:21.363Z,75.46
2022-09-09T02:58:48.917Z,75.72
2022-09-09T03:01:15.455Z,76.00
2022-09-09T03:03:43.402Z,76.14
2022-09-09T03:06:10.877Z,75.78
2022-09-09T03:08:37.469Z,75.81
2022-09-09T03:11:04.657Z,75.44
2022-09-09T03:13:31.210Z,75.01
2022-09-09T03:15:57.631Z,75.05
2022-09-09T03:18:24.143Z,75.59
2022-09-09T03:20:51.107Z,75.56
2022-09-09T03:23:18.161Z,76.07
2022-09-09T03:25:49.580Z,75.56
2022-09-09T03:28:16.427Z,75.70
2022-09-09T03:30:42.886Z,75.70
2022-09-09T03:33:09.378Z,75.17
2022-09-09T03:35:35.841Z,75.33
2022-09-09T03:38:02.358Z,75.41
2022-09-09T03:40:28.820Z,75.64
2022-09-09T03:42:55.302Z,75.26
2022-09-09T03:45:21.735Z,75.01
2022-09-09T03:47:48.294Z,74.65
2022-09-09T03:50:14.804Z,74.86
2022-09-09T03:52:43.019Z,75.19
2022-09-09T03:55:10.085Z,75.38
2022-09-09T03:57:37.034Z,76.04
2022-09-09T04:00:09.413Z,75.55
2022-09-09T04:02:36.063Z,75.28
2022-09-09T04:05:02.812Z,74.91
2022-09-09T04:07:29.443Z,74.58
2022-09-09T04:09:56.281Z,74.63
2022-09-09T04:12:23.312Z,74.73
2022-09-09T04:14:49.919Z,74.62
2022-09-09T04:17:16.682Z,74.43
2022-09-09T04:19:43.258Z,74.73
2022-09-09T04:22:10.373Z,75.03
2022-09-09T04:24:36.863Z,74.99
2022-09-09T04:27:03.682Z,74.95
2022-09-09T04:29:30.135Z,74.78
2022-09-09T04:31:56.616Z,74.75
2022-09-09T04:34:23.160Z,74.60
2022-09-09T04:36:49.602Z,74.34
2022-09-09T04:39:16.024Z,74.65
2022-09-09T04:41:42.470Z,74.77
2022-09-09T04:44:09.000Z,74.76
2022-09-09T04:46:35.422Z,74.61
2022-09-09T04:49:01.880Z,74.76
2022-09-09T04:51:29.136Z,74.63
2022-09-09T04:53:55.642Z,74.25
2022-09-09T04:56:22.254Z,74.31
2022-09-09T04:58:48.917Z,74.01
2022-09-09T05:01:25.608Z,73.72
2022-09-09T05:03:54.111Z,73.85
2022-09-09T05:06:23.134Z,73.92
2022-09-09T05:08:50.495Z,74.11
2022-09-09T05:11:25.069Z,74.31
2022-09-09T05:13:52.651Z,74.73
2022-09-09T05:16:21.616Z,74.74
2022-09-09T05:18:48.334Z,74.94
2022-09-09T05:21:17.100Z,74.70
2022-09-09T05:23:43.725Z,74.47
2022-09-09T05:26:17.737Z,74.35
2022-09-09T05:28:46.111Z,74.48
2022-09-09T05:31:15.067Z,74.34
2022-09-09T05:33:44.655Z,74.25
2022-09-09T05:36:14.571Z,74.31
2022-09-09T05:38:42.170Z,74.24
2022-09-09T05:41:16.457Z,73.98
2022-09-09T05:43:45.316Z,74.19
2022-09-09T05:46:15.751Z,74.24
2022-09-09T05:48:49.034Z,74.48
2022-09-09T05:51:18.999Z,74.52
2022-09-09T05:53:46.765Z,75.10
2022-09-09T05:56:18.388Z,74.98
2022-09-09T05:58:45.740Z,75.24
2022-09-09T06:01:16.381Z,74.93
2022-09-09T06:03:45.779Z,75.38
2022-09-09T06:06:16.405Z,75.45
2022-09-09T06:08:45.222Z,75.86
2022-09-09T06:11:16.222Z,76.01
2022-09-09T06:13:43.815Z,75.53
2022-09-09T06:16:15.928Z,75.87
2022-09-09T06:18:43.289Z,76.04
2022-09-09T06:21:18.649Z,76.09
2022-09-09T06:23:46.470Z,76.04
2022-09-09T06:26:18.950Z,75.80
2022-09-09T06:28:49.264Z,76.04
2022-09-09T06:31:24.021Z,75.92
2022-09-09T06:33:55.955Z,75.90
2022-09-09T06:36:26.570Z,75.75
2022-09-09T06:38:54.287Z,75.84
2022-09-09T06:41:23.858Z,75.67
2022-09-09T06:43:50.641Z,75.68
2022-09-09T06:46:21.047Z,75.62
2022-09-09T06:48:47.727Z,75.30
2022-09-09T06:51:19.946Z,75.46
2022-09-09T06:53:48.526Z,75.66
2022-09-09T06:56:18.128Z,75.84
2022-09-09T06:58:46.517Z,75.87
2022-09-09T07:01:16.803Z,75.92
2022-09-09T07:03:48.107Z,75.74
2022-09-09T07:06:26.790Z,75.41
2022-09-09T07:08:59.997Z,75.13
2022-09-09T07:11:33.584Z,75.01
2022-09-09T07:14:01.926Z,75.03
2022-09-09T07:16:30.329Z,74.98
2022-09-09T07:18:58.693Z,75.18
2022-09-09T07:21:28.217Z,74.90
2022-09-09T07:23:56.083Z,74.81
2022-09-09T07:26:28.426Z,74.73
2022-09-09T07:28:57.296Z,74.83
2022-09-09T07:31:31.591Z,74.93
2022-09-09T07:34:00.563Z,75.00
2022-09-09T07:36:33.412Z,74.76
2022-09-09T07:39:07.078Z,74.56
2022-09-09T07:41:39.799Z,74.65
2022-09-09T07:44:11.737Z,74.57
2022-09-09T07:46:40.646Z,74.60
2022-09-09T07:49:07.654Z,74.59
2022-09-09T07:51:37.609Z,74.46
2022-09-09T07:54:10.158Z,74.26
2022-09-09T07:56:40.279Z,74.05
2022-09-09T07:59:08.572Z,73.57
2022-09-09T08:01:43.268Z,73.10
2022-09-09T08:04:17.508Z,73.18
2022-09-09T08:06:54.312Z,73.30
2022-09-09T08:09:22.162Z,73.31
2022-09-09T08:11:49.337Z,73.08
2022-09-09T08:14:16.062Z,73.25
2022-09-09T08:16:48.860Z,73.27
2022-09-09T08:19:18.825Z,72.93
2022-09-09T08:21:46.463Z,73.03
2022-09-09T08:24:16.055Z,72.58
2022-09-09T08:26:48.378Z,71.99
2022-09-09T08:29:15.169Z,71.79
2022-09-09T08:31:48.024Z,70.84
2022-09-09T08:34:15.873Z,70.68
2022-09-09T08:36:45.924Z,70.35
2022-09-09T08:39:16.458Z,69.79
2022-09-09T08:42:03.921Z,69.62
2022-09-09T08:45:04.295Z,68.58
2022-09-09T08:48:05.735Z,68.95
2022-09-09T08:50:39.455Z,69.40
2022-09-09T08:53:18.435Z,69.16
2022-09-09T08:55:56.166Z,68.94
2022-09-09T08:58:35.456Z,68.64
2022-09-09T09:01:27.685Z,68.18
2022-09-09T09:04:15.155Z,66.69
2022-09-09T09:07:22.023Z,66.28
2022-09-09T09:10:41.753Z,65.90
2022-09-09T09:13:18.323Z,66.49
2022-09-09T09:15:58.963Z,64.35
2022-09-09T09:18:25.523Z,66.08
2022-09-09T09:21:12.835Z,65.07
2022-09-09T09:23:58.032Z,65.30
2022-09-09T09:26:32.414Z,65.17
2022-09-09T09:29:03.935Z,64.76
2022-09-09T09:31:30.467Z,64.64
2022-09-09T09:34:00.152Z,64.77
2022-09-09T09:36:57.441Z,63.67
2022-09-09T09:42:20.341Z,64.71
2022-09-09T09:44:49.719Z,64.63
2022-09-09T09:47:27.866Z,64.62
2022-09-09T09:50:00.360Z,66.94
2022-09-09T09:52:30.619Z,68.76
2022-09-09T09:55:05.243Z,69.42
2022-09-09T09:57:35.302Z,70.36
2022-09-09T10:00:26.575Z,70.60
2022-09-09T10:02:53.571Z,70.84
2022-09-09T10:05:35.563Z,70.65
2022-09-09T10:08:06.806Z,70.88
2022-09-09T10:11:02.971Z,71.13
2022-09-09T10:14:10.159Z,71.42
2022-09-09T10:17:11.227Z,71.95
2022-09-09T10:19:40.997Z,71.75
2022-09-09T10:22:26.638Z,71.80
2022-09-09T10:25:18.304Z,71.36
2022-09-09T10:28:18.982Z,71.55
2022-09-09T10:31:09.662Z,70.92
2022-09-09T10:33:52.480Z,71.43
2022-09-09T10:36:27.002Z,71.10
2022-09-09T10:39:11.315Z,70.70
2022-09-09T10:42:06.390Z,70.11
2022-09-09T10:45:11.581Z,69.07
2022-09-09T10:48:09.417Z,68.05
2022-09-09T10:51:05.860Z,67.35
2022-09-09T10:54:18.670Z,66.84
2022-09-09T10:56:54.399Z,66.57
2022-09-09T10:59:30.110Z,66.05
2022-09-09T11:02:14.318Z,65.54
2022-09-09T11:04:56.450Z,64.58
2022-09-09T11:07:33.739Z,64.32
2022-09-09T11:10:25.123Z,64.30
2022-09-09T11:13:00.478Z,64.13
2022-09-09T11:15:42.117Z,64.11
2022-09-09T11:18:20.189Z,63.89
2022-09-09T11:20:56.715Z,63.84
2022-09-09T11:23:46.638Z,62.43
2022-09-09T11:26:29.197Z,62.84
2022-09-09T11:29:15.657Z,61.71
2022-09-09T11:32:16.939Z,61.32
2022-09-09T11:35:09.658Z,60.55
2022-09-09T11:38:19.485Z,59.29
2022-09-09T11:40:47.593Z,60.97
2022-09-09T11:43:29.046Z,60.34
2022-09-09T11:46:03.577Z,60.32
2022-09-09T11:48:39.313Z,60.48
2022-09-09T11:51:16.864Z,59.83
2022-09-09T11:53:56.959Z,59.06
2022-09-09T11:56:34.571Z,58.42
2022-09-09T11:59:20.155Z,58.74
2022-09-09T12:01:51.351Z,58.63
2022-09-09T12:04:26.700Z,55.66
2022-09-09T12:07:36.655Z,57.04
2022-09-09T12:10:26.951Z,57.66
2022-09-09T12:12:53.642Z,57.38
2022-09-09T12:15:30.073Z,56.41
2022-09-09T12:18:03.806Z,56.82
2022-09-09T12:20:38.077Z,56.50
2022-09-09T12:23:27.905Z,56.16
2022-09-09T12:26:16.637Z,56.86
2022-09-09T12:29:34.055Z,57.38
2022-09-09T12:32:12.567Z,59.43
2022-09-09T12:35:01.141Z,59.87
2022-09-09T12:37:45.790Z,60.06
2022-09-09T12:40:30.113Z,60.39
2022-09-09T12:42:56.923Z,60.89
2022-09-09T12:45:27.119Z,60.42
2022-09-09T12:48:28.143Z,59.16
2022-09-09T12:50:56.647Z,59.91
2022-09-09T12:53:35.128Z,59.03
2022-09-09T12:56:09.543Z,58.36
2022-09-09T12:58:39.171Z,58.42
2022-09-09T13:01:07.368Z,58.01
2022-09-09T13:03:43.892Z,57.28
2022-09-09T13:06:23.651Z,56.22
2022-09-09T13:09:00.083Z,56.37
2022-09-09T13:11:40.506Z,55.22
2022-09-09T13:14:07.409Z,55.31
2022-09-09T13:16:42.042Z,54.36
2022-09-09T13:19:16.695Z,54.42
2022-09-09T13:21:43.522Z,54.03
2022-09-09T13:24:33.454Z,52.87
2022-09-09T13:27:03.931Z,53.61
2022-09-09T13:29:33.281Z,53.42
2022-09-09T13:32:14.022Z,53.40
2022-09-09T13:34:50.987Z,53.60
2022-09-09T13:37:34.572Z,52.27
2022-09-09T13:40:02.834Z,53.59
2022-09-09T13:42:35.779Z,52.63
2022-09-09T13:45:05.183Z,52.82
2022-09-09T13:47:35.932Z,52.33
2022-09-09T13:50:32.082Z,50.88
2022-09-09T13:53:00.271Z,52.00
2022-09-09T13:55:30.251Z,51.76
2022-09-09T13:58:03.456Z,52.07
2022-09-09T14:00:33.748Z,52.25
2022-09-09T14:03:04.138Z,51.98
2022-09-09T14:05:35.007Z,51.65
2022-09-09T14:08:05.486Z,51.53
2022-09-09T14:10:32.115Z,51.64
2022-09-09T14:12:58.604Z,52.21
2022-09-09T14:15:25.086Z,51.16
2022-09-09T14:17:53.118Z,51.32
2022-09-09T14:20:20.210Z,51.72
2022-09-09T14:22:46.715Z,52.33
2022-09-09T14:25:16.538Z,52.23
2022-09-09T14:27:43.348Z,52.26
2022-09-09T14:30:10.813Z,52.25
2022-09-09T14:32:37.271Z,53.11
2022-09-09T14:35:04.340Z,54.12
2022-09-09T14:37:32.055Z,55.79
2022-09-09T14:39:59.073Z,57.30
2022-09-09T14:42:26.838Z,58.97
2022-09-09T14:44:53.524Z,60.67
2022-09-09T14:47:20.011Z,61.27
2022-09-09T14:49:47.324Z,61.93
2022-09-09T14:52:13.984Z,62.58
2022-09-09T14:54:41.084Z,63.19
2022-09-09T14:57:07.580Z,63.78
2022-09-09T14:59:35.242Z,64.19
2022-09-09T15:02:04.983Z,65.06
2022-09-09T15:04:31.573Z,66.28
2022-09-09T15:06:59.186Z,66.35
2022-09-09T15:09:25.657Z,65.99
2022-09-09T15:11:52.188Z,65.79
2022-09-09T15:14:22.339Z,65.73
2022-09-09T15:16:51.930Z,65.91
2022-09-09T15:19:18.450Z,66.11
2022-09-09T15:21:45.307Z,66.36
2022-09-09T15:24:11.832Z,66.59
2022-09-09T15:26:41.657Z,66.47
2022-09-09T15:29:09.200Z,65.93
2022-09-09T15:31:36.753Z,66.30
2022-09-09T15:34:07.613Z,66.04
2022-09-09T15:36:44.032Z,65.75
2022-09-09T15:39:17.224Z,66.95
2022-09-09T15:41:46.256Z,66.77
2022-09-09T15:44:13.188Z,67.22
2022-09-09T15:46:42.038Z,67.38
2022-09-09T15:49:20.651Z,67.41
2022-09-09T15:51:52.164Z,67.66
2022-09-09T15:54:21.842Z,67.81
2022-09-09T15:56:56.938Z,67.73
2022-09-09T15:59:25.089Z,67.96
2022-09-09T16:01:54.440Z,67.95
2022-09-09T16:04:25.310Z,67.99
2022-09-09T16:06:54.039Z,67.57
2022-09-09T16:09:21.682Z,67.64
2022-09-09T16:11:49.167Z,67.80
2022-09-09T16:14:16.688Z,67.55
2022-09-09T16:16:43.911Z,67.92
2022-09-09T16:19:13.554Z,68.49
2022-09-09T16:21:44.123Z,68.90
2022-09-09T16:24:15.225Z,69.35
2022-09-09T16:26:48.246Z,69.50
2022-09-09T16:29:16.635Z,69.86
2022-09-09T16:31:43.695Z,69.85
2022-09-09T16:34:10.433Z,69.75
2022-09-09T16:36:40.236Z,69.60
2022-09-09T16:39:16.683Z,69.53
2022-09-09T16:41:46.536Z,69.53
2022-09-09T16:44:17.775Z,69.41
2022-09-09T16:46:45.509Z,69.31
2022-09-09T16:49:15.746Z,69.37
2022-09-09T16:51:49.452Z,69.40
2022-09-09T16:54:18.069Z,69.48
2022-09-09T16:56:47.849Z,69.80
2022-09-09T16:59:20.248Z,69.76
2022-09-09T17:01:50.043Z,69.87
2022-09-09T17:04:24.997Z,70.07
2022-09-09T17:06:54.857Z,70.01
2022-09-09T17:09:23.738Z,70.07
2022-09-09T17:11:53.014Z,70.09
2022-09-09T17:14:22.027Z,70.02
2022-09-09T17:16:48.971Z,70.38
2022-09-09T17:19:15.851Z,70.39
2022-09-09T17:22:05.787Z,70.34
2022-09-09T17:24:30.066Z,71.65
2022-09-09T17:26:56.807Z,71.18
2022-09-09T17:29:23.292Z,70.92
2022-09-09T17:31:49.792Z,70.91
2022-09-09T17:34:16.243Z,70.39
2022-09-09T17:36:42.720Z,70.37
2022-09-09T17:39:09.457Z,70.43
2022-09-09T17:41:39.387Z,70.53
2022-09-09T17:46:43.642Z,71.15
2022-09-09T17:49:16.495Z,71.88
2022-09-09T17:51:46.056Z,72.00
2022-09-09T17:54:20.000Z,72.00
2022-09-09T17:56:48.135Z,71.92
2022-09-09T17:59:17.257Z,71.53
2022-09-09T18:01:47.973Z,71.74
2022-09-09T18:04:17.331Z,72.19
2022-09-09T18:06:51.124Z,72.23
2022-09-09T18:09:23.457Z,72.10
2022-09-09T18:11:54.483Z,72.25
2022-09-09T18:14:25.755Z,72.35
2022-09-09T18:16:52.909Z,72.64
2022-09-09T18:19:23.788Z,72.47
2022-09-09T18:21:50.981Z,72.51
2022-09-09T18:24:20.816Z,72.29
2022-09-09T18:26:49.291Z,71.96
2022-09-09T18:29:24.638Z,72.01
2022-09-09T18:31:53.771Z,72.13
2022-09-09T18:34:22.654Z,72.19
2022-09-09T18:36:53.661Z,72.15
2022-09-09T18:39:24.772Z,72.05
2022-09-09T18:42:00.257Z,72.16
2022-09-09T18:44:30.982Z,72.95
2022-09-09T18:46:57.814Z,73.27
2022-09-09T18:49:26.358Z,73.02
2022-09-09T18:51:53.494Z,72.88
2022-09-09T18:54:24.272Z,72.93
2022-09-09T18:56:52.886Z,72.49
2022-09-09T18:59:23.813Z,72.15
2022-09-09T19:01:52.494Z,72.23
2022-09-09T19:04:21.084Z,72.56
2022-09-09T19:06:49.190Z,72.73
2022-09-09T19:09:18.644Z,73.01
2022-09-09T19:11:45.977Z,73.10
2022-09-09T19:14:16.417Z,72.76
2022-09-09T19:16:45.203Z,73.17
2022-09-09T19:19:17.071Z,73.23
2022-09-09T19:21:44.817Z,73.48
2022-09-09T19:24:18.736Z,73.40
2022-09-09T19:26:52.111Z,73.24
2022-09-09T19:29:24.583Z,72.99
2022-09-09T19:32:29.699Z,72.96
2022-09-09T19:34:41.682Z,72.75
2022-09-09T19:37:08.166Z,73.06
2022-09-09T19:39:34.763Z,73.32
2022-09-09T19:42:01.826Z,73.38
2022-09-09T19:44:28.554Z,73.16
2022-09-09T19:46:55.495Z,73.44
2022-09-09T19:49:22.099Z,73.40
2022-09-09T19:51:48.540Z,73.70
2022-09-09T19:54:15.003Z,73.78
2022-09-09T19:56:43.378Z,73.37
2022-09-09T19:59:12.629Z,73.36
2022-09-09T20:01:46.588Z,73.58
2022-09-09T20:04:14.834Z,73.77
2022-09-09T20:06:46.098Z,73.87
2022-09-09T20:09:16.811Z,73.73
2022-09-09T20:11:46.184Z,73.81
2022-09-09T20:14:13.912Z,73.51
2022-09-09T20:16:41.321Z,73.50
2022-09-09T20:19:12.066Z,73.18
2022-09-09T20:21:48.285Z,73.32
2022-09-09T20:24:18.753Z,73.43
2022-09-09T20:26:47.888Z,73.51
2022-09-09T20:29:19.271Z,73.59
2022-09-09T20:31:46.919Z,73.58
2022-09-09T20:34:18.367Z,73.65
2022-09-09T20:36:45.239Z,73.77
2022-09-09T20:39:16.989Z,73.89
2022-09-09T20:41:45.855Z,74.04
2022-09-09T20:44:24.205Z,73.67
2022-09-09T20:46:56.927Z,73.62
2022-09-09T20:49:24.238Z,73.90
2022-09-09T20:51:51.906Z,73.57
2022-09-09T20:54:24.790Z,73.78
2022-09-09T20:56:54.962Z,73.79
2022-09-09T20:59:26.207Z,73.65
2022-09-09T21:01:53.833Z,73.73
2022-09-09T21:04:22.277Z,73.82
2022-09-09T21:06:50.972Z,73.91
2022-09-09T21:09:19.178Z,73.91
2022-09-09T21:11:47.076Z,74.09
2022-09-09T21:14:13.674Z,73.87
2022-09-09T21:16:40.186Z,73.82
2022-09-09T21:19:06.737Z,73.94
2022-09-09T21:21:33.302Z,74.26
2022-09-09T21:24:00.493Z,74.37
2022-09-09T21:26:27.784Z,74.59
2022-09-09T21:28:55.777Z,74.20
2022-09-09T21:31:27.788Z,74.27
2022-09-09T21:33:54.490Z,74.12
2022-09-09T21:36:21.015Z,74.13
2022-09-09T21:38:47.477Z,74.42
2022-09-09T21:41:16.494Z,74.33
2022-09-09T21:43:46.601Z,74.49
2022-09-09T21:46:16.798Z,74.61
2022-09-09T21:48:44.309Z,74.42
2022-09-09T21:51:15.912Z,74.66
2022-09-09T21:53:43.301Z,74.64
2022-09-09T21:56:14.046Z,74.60
2022-09-09T21:58:41.654Z,74.73
2022-09-09T22:01:15.044Z,74.85
2022-09-09T22:03:44.728Z,74.70
2022-09-09T22:06:16.061Z,74.55
2022-09-09T22:08:43.622Z,74.77
2022-09-09T22:11:18.038Z,74.43
2022-09-09T22:13:48.191Z,74.43
2022-09-09T22:16:18.210Z,74.37
2022-09-09T22:18:50.365Z,74.52
2022-09-09T22:21:18.136Z,74.75
2022-09-09T22:23:46.728Z,74.96
2022-09-09T22:26:13.177Z,75.02
2022-09-09T22:28:39.976Z,74.95
2022-09-09T22:31:06.704Z,74.41
2022-09-09T22:33:33.693Z,74.70
2022-09-09T22:36:00.422Z,74.95
2022-09-09T22:38:26.940Z,75.18
2022-09-09T22:40:53.501Z,75.44
2022-09-09T22:43:22.254Z,75.65
2022-09-09T22:45:50.767Z,75.59
2022-09-09T22:48:18.182Z,75.06
2022-09-09T22:50:45.131Z,75.08
2022-09-09T22:53:17.260Z,74.95
2022-09-09T22:55:59.342Z,74.92
2022-09-09T22:58:29.022Z,74.50
2022-09-09T23:00:59.699Z,74.80
2022-09-09T23:03:29.616Z,74.72
2022-09-09T23:06:03.307Z,74.84
2022-09-09T23:08:37.141Z,74.87
2022-09-09T23:11:11.189Z,75.08
2022-09-09T23:13:47.397Z,75.68
2022-09-09T23:16:25.663Z,75.62
2022-09-09T23:18:54.943Z,75.57
2022-09-09T23:21:25.327Z,75.59
2022-09-09T23:23:53.952Z,74.93
2022-09-09T23:26:21.206Z,74.83
2022-09-09T23:28:51.820Z,74.49
2022-09-09T23:31:22.304Z,75.00
2022-09-09T23:33:49.238Z,75.24
2022-09-09T23:36:22.266Z,75.21
2022-09-09T23:38:49.026Z,75.17
2022-09-09T23:41:20.910Z,75.01
2022-09-09T23:43:53.090Z,74.69
2022-09-09T23:46:23.506Z,74.97
2022-09-09T23:48:51.724Z,75.08
2022-09-09T23:51:23.505Z,75.07
2022-09-09T23:53:53.074Z,75.12
2022-09-09T23:56:21.747Z,75.26
2022-09-09T23:58:49.577Z,75.34
